createdAt,value
2022-09-12T00:02:29.440Z,-25.3
2022-09-12T00:04:30.856Z,-25.4
2022-09-12T00:06:32.395Z,-25.7
2022-09-12T00:08:34.177Z,-25.4
2022-09-12T00:10:35.617Z,-25.7
2022-09-12T00:12:36.605Z,-25.7
2022-09-12T00:14:37.522Z,-25.7
2022-09-12T00:16:39.486Z,-25.5
2022-09-12T00:18:41.330Z,-25.8
2022-09-12T00:20:43.215Z,-25.6
2022-09-12T00:24:46.378Z,-25.6
2022-09-12T00:26:48.315Z,-25.8
2022-09-12T00:28:49.829Z,-25.7
2022-09-12T00:32:52.915Z,-25.6
2022-09-12T00:34:54.785Z,-25.7
2022-09-12T00:36:55.811Z,-25.9
2022-09-12T00:38:57.217Z,-25.6
2022-09-12T00:43:00.241Z,-25.8
2022-09-12T00:45:02.041Z,-25.9
2022-09-12T00:47:03.365Z,-25.7
2022-09-12T00:49:04.958Z,-25.5
2022-09-12T00:51:06.004Z,-25.8
2022-09-12T00:53:07.382Z,-26
2022-09-12T00:55:08.725Z,-25.4
2022-09-12T00:57:10.328Z,-25.8
2022-09-12T00:59:11.736Z,-25.8
2022-09-12T01:01:13.385Z,-25.5
2022-09-12T01:03:15.149Z,-25.7
2022-09-12T01:05:16.423Z,-25.5
2022-09-12T01:07:18.320Z,-25.8
2022-09-12T01:09:19.888Z,-25.6
2022-09-12T01:11:21.819Z,-25.5
2022-09-12T01:13:23.699Z,-25.7
2022-09-12T01:15:25.579Z,-25.7
2022-09-12T01:17:26.878Z,-25.7
2022-09-12T01:19:28.011Z,-25.8
2022-09-12T01:21:29.399Z,-25.7
2022-09-12T01:27:34.643Z,-25.9
2022-09-12T01:29:36.344Z,-25.5
2022-09-12T01:31:38.215Z,-25.7
2022-09-12T01:35:41.327Z,-25.6
2022-09-12T01:39:44.320Z,-25.8
2022-09-12T01:41:45.738Z,-25.8
2022-09-12T01:43:46.732Z,-25.5
2022-09-12T01:47:49.406Z,-25.6
2022-09-12T01:49:51.217Z,-25.7
2022-09-12T01:51:52.632Z,-25.8
2022-09-12T01:53:53.613Z,-25.6
2022-09-12T01:55:55.391Z,-25.8
2022-09-12T01:57:56.314Z,-25.6
2022-09-12T02:01:59.663Z,-25.8
2022-09-12T02:04:00.736Z,-25.6
2022-09-12T02:06:02.163Z,-25.5
2022-09-12T02:08:03.797Z,-25.7
2022-09-12T02:10:05.016Z,-25.7
2022-09-12T02:12:06.301Z,-25.8
2022-09-12T02:14:07.895Z,-25.7
2022-09-12T02:16:09.402Z,-25.9
2022-09-12T02:18:10.932Z,-25.7
2022-09-12T02:20:17.737Z,-25.8
2022-09-12T02:22:14.094Z,-25.7
2022-09-12T02:24:15.367Z,-25.8
2022-09-12T02:26:16.883Z,-26
2022-09-12T02:28:17.896Z,-25.8
2022-09-12T02:30:19.815Z,-25.7
2022-09-12T02:32:21.458Z,-26
2022-09-12T02:34:22.883Z,-25.9
2022-09-12T02:36:24.561Z,-26
2022-09-12T02:38:26.071Z,-25.8
2022-09-12T02:40:27.477Z,-26.1
2022-09-12T02:42:28.994Z,-25.8
2022-09-12T02:44:30.109Z,-26
2022-09-12T02:46:31.846Z,-25.9
2022-09-12T02:48:33.312Z,-25.8
2022-09-12T02:50:34.998Z,-25.8
2022-09-12T02:52:36.910Z,-25.9
2022-09-12T02:58:40.909Z,-26.5
2022-09-12T03:00:42.357Z,-26.5
2022-09-12T03:02:43.854Z,-26.6
2022-09-12T03:04:44.993Z,-26.3
2022-09-12T03:06:46.902Z,-26.3
2022-09-12T03:08:48.783Z,-26.4
2022-09-12T03:10:50.736Z,-26.3
2022-09-12T03:12:52.022Z,-26.6
2022-09-12T03:14:53.911Z,-26.6
2022-09-12T03:16:55.097Z,-26.5
2022-09-12T03:18:56.317Z,-26.3
2022-09-12T03:20:57.742Z,-26.3
2022-09-12T03:22:58.828Z,-26.3
2022-09-12T03:25:00.719Z,-26.2
2022-09-12T03:27:02.284Z,-26.4
2022-09-12T03:29:03.545Z,-26.4
2022-09-12T03:31:05.251Z,-26.3
2022-09-12T03:33:06.885Z,-26.6
2022-09-12T03:37:09.688Z,-26.2
2022-09-12T03:39:10.645Z,-26.4
2022-09-12T03:45:15.341Z,-26.2
2022-09-12T03:47:16.527Z,-26.6
2022-09-12T03:49:17.831Z,-26.9
2022-09-12T03:51:19.332Z,-26.4
2022-09-12T03:55:22.715Z,-26.6
2022-09-12T03:57:23.878Z,-26.5
2022-09-12T03:59:25.424Z,-26.7
2022-09-12T04:01:27.201Z,-26.6
2022-09-12T04:03:29.035Z,-26.8
2022-09-12T04:05:30.832Z,-26.7
2022-09-12T04:07:32.637Z,-26.8
2022-09-12T04:09:33.626Z,-26.9
2022-09-12T04:11:35.021Z,-26.7
2022-09-12T04:13:36.484Z,-26.7
2022-09-12T04:17:38.670Z,-26.8
2022-09-12T04:19:39.725Z,-26.8
2022-09-12T04:21:40.680Z,-27.1
2022-09-12T04:23:41.817Z,-27.3
2022-09-12T04:27:45.381Z,-27.1
2022-09-12T04:29:46.712Z,-27.3
2022-09-12T04:31:48.241Z,-27.1
2022-09-12T04:33:49.634Z,-27
2022-09-12T04:39:53.589Z,-25.8
2022-09-12T04:41:55.339Z,-27
2022-09-12T04:43:56.975Z,-27.1
2022-09-12T04:45:58.877Z,-26.8
2022-09-12T04:48:00.624Z,-26.8
2022-09-12T04:50:02.550Z,-27.2
2022-09-12T04:54:04.858Z,-26.7
2022-09-12T04:56:06.600Z,-27.1
2022-09-12T04:58:08.209Z,-27
2022-09-12T05:00:09.461Z,-26.9
2022-09-12T05:04:12.783Z,-27
2022-09-12T05:06:14.241Z,-27.1
2022-09-12T05:10:17.096Z,-27.2
2022-09-12T05:12:18.666Z,-27.2
2022-09-12T05:14:19.988Z,-27.3
2022-09-12T05:20:25.301Z,-25.5
2022-09-12T05:22:26.753Z,-25.6
2022-09-12T05:24:28.027Z,-25.7
2022-09-12T05:26:29.638Z,-25.5
2022-09-12T05:28:31.152Z,-25.5
2022-09-12T05:30:32.326Z,-25.7
2022-09-12T05:32:33.976Z,-25.8
2022-09-12T05:36:36.621Z,-25.5
2022-09-12T05:38:37.871Z,-25.8
2022-09-12T05:40:39.515Z,-25.6
2022-09-12T05:42:41.433Z,-25.5
2022-09-12T05:44:42.433Z,-25.7
2022-09-12T05:46:44.243Z,-25.7
2022-09-12T05:48:45.755Z,-25.7
2022-09-12T05:50:47.518Z,-25.6
2022-09-12T05:52:49.209Z,-25.6
2022-09-12T05:54:51.021Z,-25.3
2022-09-12T05:56:52.281Z,-25.3
2022-09-12T05:58:54.013Z,-24.7
2022-09-12T06:00:55.880Z,-22.9
2022-09-12T06:02:57.204Z,-22.7
2022-09-12T06:04:58.756Z,-23.6
2022-09-12T06:07:00.107Z,-24
2022-09-12T06:09:01.270Z,-22.8
2022-09-12T06:11:02.492Z,-24.3
2022-09-12T06:13:03.264Z,-24.1
2022-09-12T06:15:04.425Z,-24.2
2022-09-12T06:17:06.360Z,-23
2022-09-12T06:19:08.109Z,-21.7
2022-09-12T06:21:09.083Z,-16.7
2022-09-12T06:23:10.688Z,-15
2022-09-12T06:25:12.555Z,-8.7
2022-09-12T06:27:14.230Z,-5.3
2022-09-12T06:29:15.923Z,-5.9
2022-09-12T06:31:17.781Z,-0.8
2022-09-12T06:35:20.802Z,3.3
2022-09-12T06:37:21.808Z,7.4
2022-09-12T06:39:23.082Z,11.8
2022-09-12T06:41:24.593Z,11.3
2022-09-12T06:43:25.617Z,11.6
2022-09-12T06:46:11.047Z,9
2022-09-12T06:48:12.620Z,7.5
2022-09-12T06:50:13.782Z,6.6
2022-09-12T06:52:14.698Z,6.9
2022-09-12T06:58:19.235Z,5.8
2022-09-12T07:00:20.747Z,12.8
2022-09-12T07:02:22.009Z,15
2022-09-12T07:04:23.694Z,21.8
2022-09-12T07:06:24.991Z,23.9
2022-09-12T07:08:26.669Z,18.7
2022-09-12T07:10:27.856Z,8
2022-09-12T07:12:29.407Z,10.9
2022-09-12T07:14:31.012Z,13.4
2022-09-12T07:18:33.251Z,11.8
2022-09-12T07:20:35.087Z,12.1
2022-09-12T07:22:36.048Z,16
2022-09-12T07:24:36.986Z,21.1
2022-09-12T07:26:38.583Z,28.5
2022-09-12T07:28:39.673Z,23.7
2022-09-12T07:30:40.706Z,20.7
2022-09-12T07:32:42.031Z,27.6
2022-09-12T07:34:43.171Z,27.1
2022-09-12T07:38:46.255Z,29.6
2022-09-12T07:40:47.504Z,35
2022-09-12T07:42:48.813Z,40.09
2022-09-12T07:44:50.006Z,38.4
2022-09-12T07:46:51.865Z,30.4
2022-09-12T07:48:53.433Z,38.8
2022-09-12T07:50:54.923Z,44.9
2022-09-12T07:54:58.653Z,74.4
2022-09-12T07:57:00.231Z,73.9
2022-09-12T07:59:01.538Z,72.8
2022-09-12T08:01:03.222Z,72.3
2022-09-12T08:03:04.166Z,72.1
2022-09-12T08:05:05.577Z,71.6
2022-09-12T08:07:06.762Z,72.6
2022-09-12T08:09:08.232Z,71.9
2022-09-12T08:11:09.267Z,71.3
2022-09-12T08:13:10.946Z,70.3
2022-09-12T08:15:11.562Z,69.9
2022-09-12T08:17:12.701Z,69.19
2022-09-12T08:19:14.177Z,68.3
2022-09-12T08:21:15.192Z,67.8
2022-09-12T08:23:16.271Z,66.9
2022-09-12T08:25:17.916Z,65.8
2022-09-12T08:27:19.210Z,65
2022-09-12T08:29:20.747Z,64
2022-09-12T08:31:21.822Z,62.3
2022-09-12T08:33:22.642Z,61.3
2022-09-12T08:37:25.915Z,60.1
2022-09-12T08:39:26.778Z,58.4
2022-09-12T08:41:28.078Z,57
2022-09-12T08:43:29.756Z,56.1
2022-09-12T08:45:31.460Z,53.7
2022-09-12T08:47:32.480Z,51.3
2022-09-12T08:49:33.887Z,45.5
2022-09-12T08:51:35.417Z,41.3
2022-09-12T08:53:36.775Z,39.2
2022-09-12T08:55:38.523Z,36.09
2022-09-12T08:57:39.531Z,35.2
2022-09-12T08:59:41.146Z,33.09
2022-09-12T09:01:42.670Z,31.3
2022-09-12T09:03:43.644Z,29.5
2022-09-12T09:05:44.569Z,28.5
2022-09-12T09:07:45.558Z,26.6
2022-09-12T09:09:46.885Z,25.4
2022-09-12T09:11:48.454Z,23.2
2022-09-12T09:13:50.074Z,23
2022-09-12T09:15:52.296Z,21.3
2022-09-12T09:19:55.263Z,17.2
2022-09-12T09:21:56.659Z,17.4
2022-09-12T09:23:58.249Z,17.1
2022-09-12T09:25:59.395Z,14.5
2022-09-12T09:28:00.373Z,15.4
2022-09-12T09:30:01.180Z,14.2
2022-09-12T09:32:02.018Z,13.3
2022-09-12T09:34:03.202Z,13.5
2022-09-12T09:36:04.536Z,12
2022-09-12T09:38:05.812Z,10.4
2022-09-12T09:42:08.186Z,9
2022-09-12T09:44:09.893Z,7.7
2022-09-12T09:46:10.965Z,9
2022-09-12T09:48:12.296Z,-25.5
2022-09-12T09:52:14.774Z,-25.7
2022-09-12T09:54:16.236Z,-25.6
2022-09-12T09:56:18.384Z,-25.5
2022-09-12T09:58:18.763Z,-25.5
2022-09-12T10:02:23.974Z,-25.6
2022-09-12T10:04:22.397Z,-25.5
2022-09-12T10:06:23.823Z,-25.7
2022-09-12T10:08:25.221Z,-25.8
2022-09-12T10:12:27.788Z,-25.6
2022-09-12T10:14:29.150Z,-25.5
2022-09-12T10:16:30.823Z,-25.8
2022-09-12T10:18:32.228Z,-25.8
2022-09-12T10:20:33.652Z,-25.8
2022-09-12T10:22:34.722Z,-25.6
2022-09-12T10:24:35.598Z,-25.8
2022-09-12T10:26:36.991Z,-25.6
2022-09-12T10:30:39.932Z,-25.5
2022-09-12T10:32:41.268Z,-25.6
2022-09-12T10:34:42.713Z,-25.5
2022-09-12T10:36:43.603Z,-25.7
2022-09-12T10:38:44.523Z,-25.6
2022-09-12T10:40:46.165Z,-25.6
2022-09-12T10:44:49.897Z,-25.6
2022-09-12T10:46:51.464Z,-25.8
2022-09-12T10:48:53.093Z,-25.6
2022-09-12T10:50:54.623Z,-25.5
2022-09-12T10:52:56.370Z,-25.8
2022-09-12T10:54:58.101Z,-25.3
2022-09-12T10:56:59.104Z,-25.8
2022-09-12T10:58:59.989Z,-25.8
2022-09-12T11:01:00.894Z,-25.6
2022-09-12T11:03:01.672Z,-25.8
2022-09-12T11:05:02.807Z,-25.3
2022-09-12T11:07:04.197Z,-25.7
2022-09-12T11:09:05.338Z,-25.7
2022-09-12T11:11:06.231Z,-25.7
2022-09-12T11:13:07.726Z,-25.8
2022-09-12T11:15:09.467Z,-25.9
2022-09-12T11:17:13.319Z,-25.8
2022-09-12T11:19:11.496Z,-25.5
2022-09-12T11:21:22.191Z,-25.6
2022-09-12T11:23:14.860Z,-25.8
2022-09-12T11:25:16.583Z,-25.7
2022-09-12T11:27:17.463Z,-25.6
2022-09-12T11:29:18.557Z,-25.6
2022-09-12T11:31:20.167Z,-25.4
2022-09-12T11:33:21.406Z,-25.6
2022-09-12T11:35:22.753Z,-25.8
2022-09-12T11:37:24.406Z,-25.8
2022-09-12T11:39:25.980Z,-26
2022-09-12T11:45:29.502Z,-25.6
2022-09-12T11:47:30.658Z,-25.8
2022-09-12T11:49:35.354Z,-25.4
2022-09-12T11:51:32.688Z,-25.7
2022-09-12T11:53:34.455Z,-25.7
2022-09-12T11:55:35.582Z,-25.4
2022-09-12T12:01:43.034Z,-25.4
2022-09-12T12:03:40.404Z,-25.6
2022-09-12T12:11:45.150Z,-25.6
2022-09-12T12:15:47.730Z,-25.5
2022-09-12T12:17:49.353Z,-25.7
2022-09-12T12:19:50.572Z,-25.8
2022-09-12T12:21:51.823Z,-25.6
2022-09-12T12:25:54.504Z,-25.6
2022-09-12T12:27:55.990Z,-25.4
2022-09-12T12:29:56.812Z,-25.6
2022-09-12T12:31:58.327Z,-25.6
2022-09-12T12:33:59.829Z,-25.7
2022-09-12T12:36:00.892Z,-25.4
2022-09-12T12:38:02.296Z,-25.4
2022-09-12T12:40:03.367Z,-25.6
2022-09-12T12:42:05.072Z,-25.7
2022-09-12T12:44:06.235Z,-25.4
2022-09-12T12:46:08.021Z,-25.8
2022-09-12T12:48:09.293Z,-25.8
2022-09-12T12:50:10.467Z,-25.5
2022-09-12T12:52:11.527Z,-25.4
2022-09-12T12:54:13.185Z,-25.7
2022-09-12T12:56:14.622Z,-25.4
2022-09-12T12:58:15.468Z,-25.6
2022-09-12T13:00:16.336Z,-25.6
2022-09-12T13:02:17.676Z,-25.5
2022-09-12T13:04:19.360Z,-25.3
2022-09-12T13:06:20.705Z,-25.5
2022-09-12T13:08:21.609Z,-25.5
2022-09-12T13:10:22.441Z,-25.6
2022-09-12T13:12:23.545Z,-25.5
2022-09-12T13:14:24.568Z,-25.7
2022-09-12T13:16:25.411Z,-25.5
2022-09-12T13:18:26.615Z,-25.5
2022-09-12T13:20:28.903Z,-25.5
2022-09-12T13:22:29.246Z,-25.5
2022-09-12T13:24:30.652Z,-25.8
2022-09-12T13:26:31.632Z,-25.4
2022-09-12T13:28:33.055Z,-25.7
2022-09-12T13:33:19.715Z,-25.5
2022-09-12T13:35:20.715Z,-25.6
2022-09-12T13:37:21.795Z,-25.5
2022-09-12T13:39:23.004Z,-25.5
2022-09-12T13:41:23.988Z,-25.7
2022-09-12T13:43:25.688Z,-25.5
2022-09-12T13:45:27.129Z,-25.6
2022-09-12T13:49:29.513Z,-25.7
2022-09-12T13:51:31.068Z,-25.7
2022-09-12T13:53:32.492Z,-25.4
2022-09-12T13:55:33.907Z,-25.4
2022-09-12T13:57:35.151Z,-25.3
2022-09-12T14:03:38.699Z,-25.5
2022-09-12T14:05:39.762Z,-25.6
2022-09-12T14:07:40.876Z,-25.5
2022-09-12T14:09:42.512Z,-25.3
2022-09-12T14:11:44.104Z,-25.3
2022-09-12T14:13:45.118Z,-25.2
2022-09-12T14:15:46.669Z,-25.9
2022-09-12T14:17:47.984Z,-25.5
2022-09-12T14:19:48.800Z,-25.5
2022-09-12T14:21:49.982Z,-25.5
2022-09-12T14:23:50.997Z,-25.7
2022-09-12T14:25:52.470Z,-25.5
2022-09-12T14:27:53.896Z,-25.8
2022-09-12T14:31:56.182Z,-25.7
2022-09-12T14:33:57.374Z,-25.4
2022-09-12T14:35:58.937Z,-25.7
2022-09-12T14:40:02.010Z,-25.8
2022-09-12T14:42:03.580Z,-25.3
2022-09-12T14:44:04.928Z,-25.5
2022-09-12T14:46:05.936Z,-25.8
2022-09-12T14:48:07.031Z,-25.7
2022-09-12T14:50:11.168Z,-25.6
2022-09-12T14:52:09.581Z,-25.3
2022-09-12T14:54:10.578Z,-25.6
2022-09-12T14:56:12.119Z,64.6
2022-09-12T15:00:14.938Z,63
2022-09-12T15:02:16.222Z,61.9
2022-09-12T15:04:17.570Z,60.1
2022-09-12T15:06:19.179Z,56.7
2022-09-12T15:08:20.106Z,57.6
2022-09-12T15:10:20.855Z,53.9
2022-09-12T15:12:22.612Z,52.8
2022-09-12T15:14:24.132Z,48.1
2022-09-12T15:16:25.771Z,44
2022-09-12T15:18:26.513Z,40.5
2022-09-12T15:20:27.575Z,37.09
2022-09-12T15:22:28.517Z,34.9
2022-09-12T15:24:29.289Z,34.5
2022-09-12T15:26:30.752Z,32.8
2022-09-12T15:28:32.446Z,29.3
2022-09-12T15:30:33.204Z,27.6
2022-09-12T15:32:34.469Z,25.7
2022-09-12T15:34:35.709Z,23.1
2022-09-12T15:36:37.446Z,22.4
2022-09-12T15:38:38.917Z,21.6
2022-09-12T15:40:40.148Z,19.79
2022-09-12T15:44:42.443Z,14.8
2022-09-12T15:46:44.070Z,14.7
2022-09-12T15:48:45.384Z,15.3
2022-09-12T15:50:46.960Z,14.3
2022-09-12T15:52:48.385Z,11.2
2022-09-12T15:54:49.134Z,13.6
2022-09-12T16:00:52.648Z,9.5
2022-09-12T16:02:53.609Z,-25.9
2022-09-12T16:04:55.236Z,-25.4
2022-09-12T16:06:56.325Z,-25.5
2022-09-12T16:08:57.418Z,-25.4
2022-09-12T16:10:59.074Z,-25.3
2022-09-12T16:15:00.999Z,-25.6
2022-09-12T16:17:02.650Z,-25.5
2022-09-12T16:19:03.926Z,-25.5
2022-09-12T16:21:04.920Z,-25.7
2022-09-12T16:25:07.745Z,-25.5
2022-09-12T16:27:09.040Z,-25.6
2022-09-12T16:29:10.585Z,-25.7
2022-09-12T16:31:11.900Z,-25.7
2022-09-12T16:33:13.553Z,-25.8
2022-09-12T16:35:14.658Z,-25.5
2022-09-12T16:37:16.091Z,-25.6
2022-09-12T16:41:18.668Z,-25.6
2022-09-12T16:43:19.793Z,-25.8
2022-09-12T16:45:21.168Z,-25.4
2022-09-12T16:47:22.038Z,-25.8
2022-09-12T16:49:22.898Z,-25.6
2022-09-12T16:51:23.912Z,-26.1
2022-09-12T16:53:25.139Z,-25.8
2022-09-12T16:55:26.927Z,-25.6
2022-09-12T16:57:27.993Z,-25.6
2022-09-12T16:59:29.786Z,-25.7
2022-09-12T17:01:31.464Z,-25.8
2022-09-12T17:03:33.250Z,-25.7
2022-09-12T17:05:34.108Z,-25.7
2022-09-12T17:07:35.555Z,-25.9
2022-09-12T17:09:36.951Z,-25.7
2022-09-12T17:11:37.877Z,-25.7
2022-09-12T17:14:00.459Z,-25.6
2022-09-12T17:15:40.185Z,-25.9
2022-09-12T17:17:41.756Z,-25.5
2022-09-12T17:19:42.814Z,-25.7
2022-09-12T17:21:43.768Z,-25.7
2022-09-12T17:23:45.267Z,-25.4
2022-09-12T17:25:47.085Z,-25.6
2022-09-12T17:27:48.786Z,-25.7
2022-09-12T17:29:49.892Z,-25.8
2022-09-12T17:31:51.023Z,-25.7
2022-09-12T17:33:52.746Z,-25.8
2022-09-12T17:35:53.702Z,-25.6
2022-09-12T17:41:57.933Z,-25.6
2022-09-12T17:43:59.571Z,-25.8
2022-09-12T17:46:00.774Z,-25.7
2022-09-12T17:48:02.197Z,-25.7
2022-09-12T17:50:27.649Z,-25.8
2022-09-12T17:52:04.900Z,-25.7
2022-09-12T17:56:07.153Z,-25.7
2022-09-12T17:58:08.210Z,-25.9
2022-09-12T18:00:09.143Z,-25.9
2022-09-12T18:02:10.815Z,-25.6
2022-09-12T18:08:14.970Z,-25.6
2022-09-12T18:12:19.069Z,-25.6
2022-09-12T18:14:19.783Z,-26
2022-09-12T18:16:20.753Z,-25.8
2022-09-12T18:18:22.512Z,-25.8
2022-09-12T18:22:25.037Z,-25.9
2022-09-12T18:24:25.930Z,-25.8
2022-09-12T18:26:26.845Z,-25.5
2022-09-12T18:28:28.133Z,-25.8
2022-09-12T18:30:29.347Z,-25.6
2022-09-12T18:32:30.712Z,-26.1
2022-09-12T18:34:31.605Z,-25.7
2022-09-12T18:36:32.977Z,-25.9
2022-09-12T18:38:34.652Z,-25.7
2022-09-12T18:40:35.756Z,-25.6
2022-09-12T18:42:36.861Z,-25.6
2022-09-12T18:44:38.648Z,-25.9
2022-09-12T18:46:39.793Z,-25.8
2022-09-12T18:48:40.662Z,-25.6
2022-09-12T18:50:42.035Z,-25.9
2022-09-12T18:54:44.301Z,-25.7
2022-09-12T18:56:46.151Z,-25.8
2022-09-12T18:58:47.648Z,-25.5
2022-09-12T19:00:48.776Z,-25.9
2022-09-12T19:02:49.728Z,-25.8
2022-09-12T19:06:52.634Z,-25.9
2022-09-12T19:08:54.373Z,-25.9
2022-09-12T19:10:55.627Z,-25.8
2022-09-12T19:12:56.623Z,-26
2022-09-12T19:14:57.947Z,-26
2022-09-12T19:16:59.546Z,-26
2022-09-12T19:21:02.231Z,-26.2
2022-09-12T19:23:03.669Z,-26
2022-09-12T19:25:04.633Z,-26.1
2022-09-12T19:27:06.367Z,-25.8
2022-09-12T19:29:07.339Z,-25.8
2022-09-12T19:31:09.015Z,-25.9
2022-09-12T19:33:10.190Z,-26.1
2022-09-12T19:35:11.093Z,-25.7
2022-09-12T19:37:12.834Z,-26.1
2022-09-12T19:39:13.868Z,-25.5
2022-09-12T19:43:16.600Z,-26
2022-09-12T19:45:18.335Z,-25.7
2022-09-12T19:47:19.227Z,-25.8
2022-09-12T19:49:20.932Z,-25.9
2022-09-12T19:53:23.823Z,-25.8
2022-09-12T19:55:25.082Z,-26.2
2022-09-12T19:57:26.275Z,-26
2022-09-12T20:03:30.257Z,-26.1
2022-09-12T20:05:31.592Z,-25.8
2022-09-12T20:07:33.249Z,-26
2022-09-12T20:09:34.675Z,-25.9
2022-09-12T20:11:36.424Z,-25.9
2022-09-12T20:13:38.086Z,-25.8
2022-09-12T20:14:21.883Z,-25.5
2022-09-12T20:18:24.684Z,-25.8
2022-09-12T20:20:26.176Z,-25.8
2022-09-12T20:22:27.562Z,-25.8
2022-09-12T20:24:28.999Z,-25.7
2022-09-12T20:30:32.328Z,-25.5
2022-09-12T20:32:34.048Z,-25.8
2022-09-12T20:34:35.877Z,-26
2022-09-12T20:36:36.990Z,-25.7
2022-09-12T20:38:38.108Z,-25.6
2022-09-12T20:40:38.985Z,-25.9
2022-09-12T20:44:41.440Z,-25.7
2022-09-12T20:46:42.559Z,-25.7
2022-09-12T20:48:44.315Z,-25.7
2022-09-12T20:50:45.649Z,-25.7
2022-09-12T20:56:49.687Z,-25.7
2022-09-12T20:58:51.235Z,-25.8
2022-09-12T21:00:52.589Z,-25.6
2022-09-12T21:02:54.171Z,-25.7
2022-09-12T21:04:55.060Z,-25.2
2022-09-12T21:06:56.293Z,-25.8
2022-09-12T21:10:58.914Z,-25.5
2022-09-12T21:13:00.361Z,-25.9
2022-09-12T21:15:01.811Z,-26
2022-09-12T21:17:02.894Z,-25.7
2022-09-12T21:19:04.219Z,-25.5
2022-09-12T21:21:05.338Z,-25.6
2022-09-12T21:23:06.770Z,-25.5
2022-09-12T21:25:08.155Z,-25.4
2022-09-12T21:27:09.540Z,-25.7
2022-09-12T21:29:11.153Z,-25.8
2022-09-12T21:31:12.769Z,-25.6
2022-09-12T21:33:14.429Z,-25.7
2022-09-12T21:35:15.559Z,-25.8
2022-09-12T21:37:16.845Z,-25.7
2022-09-12T21:39:18.335Z,-25.3
2022-09-12T21:41:19.299Z,-25.6
2022-09-12T21:43:20.337Z,-25.6
2022-09-12T21:45:21.298Z,-25.7
2022-09-12T21:47:22.934Z,-25.9
2022-09-12T21:49:24.210Z,-25.4
2022-09-12T21:51:25.936Z,-25.7
2022-09-12T21:53:26.865Z,-25.8
2022-09-12T21:55:28.399Z,-25.5
2022-09-12T21:57:30.240Z,-25.9
2022-09-12T21:59:31.426Z,-25.7
2022-09-12T22:01:32.863Z,-25.6
2022-09-12T22:03:34.274Z,-25.7
2022-09-12T22:05:35.280Z,-25.6
2022-09-12T22:07:36.545Z,-25.3
2022-09-12T22:09:38.242Z,-25.7
2022-09-12T22:11:39.716Z,-25.8
2022-09-12T22:13:40.868Z,-25.5
2022-09-12T22:15:42.138Z,-25.7
2022-09-12T22:17:43.848Z,-25.5
2022-09-12T22:19:44.796Z,-25.6
2022-09-12T22:21:46.223Z,-25.3
2022-09-12T22:23:47.955Z,-25.7
2022-09-12T22:25:49.147Z,-25.6
2022-09-12T22:27:50.138Z,-25.4
2022-09-12T22:31:53.226Z,-25.6
2022-09-12T22:33:54.970Z,-25.5
2022-09-12T22:35:56.156Z,-25.6
2022-09-12T22:37:57.373Z,-25.5
2022-09-12T22:42:00.320Z,-25.9
2022-09-12T22:44:01.495Z,-25.2
2022-09-12T22:46:02.510Z,-25.6
2022-09-12T22:48:07.304Z,-25.6
2022-09-12T22:52:06.839Z,-25.5
2022-09-12T22:54:08.032Z,-25.7
2022-09-12T22:56:09.792Z,-25.6
2022-09-12T22:58:11.497Z,-25.8
2022-09-12T23:00:12.864Z,-25.5
2022-09-12T23:02:14.627Z,-25.6
2022-09-12T23:04:16.330Z,-25.5
2022-09-12T23:06:17.678Z,-25.4
2022-09-12T23:08:18.919Z,-25.6
2022-09-12T23:10:20.719Z,-25.3
2022-09-12T23:12:21.727Z,-25.5
2022-09-12T23:14:23.314Z,-25.8
2022-09-12T23:16:24.622Z,-25.6
2022-09-12T23:18:25.696Z,-25.2
2022-09-12T23:20:27.296Z,-25.5
2022-09-12T23:22:28.766Z,-25.7
2022-09-12T23:24:30.434Z,-25.5
2022-09-12T23:26:32.102Z,-25.6
2022-09-12T23:28:33.954Z,-25.6
2022-09-12T23:30:35.058Z,-25.3
2022-09-12T23:32:36.614Z,-25.6
2022-09-12T23:34:38.452Z,-25.7
2022-09-12T23:36:40.124Z,-25.7
2022-09-12T23:38:41.742Z,-25.5
2022-09-12T23:40:43.333Z,-25.4
2022-09-12T23:42:45.004Z,-25.6
2022-09-12T23:44:46.825Z,-25.7
2022-09-12T23:46:48.575Z,-25.6
2022-09-12T23:50:51.948Z,-25.4
2022-09-12T23:52:53.804Z,-25.5
2022-09-12T23:54:55.340Z,-25.6
2022-09-12T23:56:57.022Z,-25.4
